createdAt,value
2018-09-25T00:01:50.001Z,10.89
2018-09-25T00:04:25.644Z,10.91
2018-09-25T00:07:01.441Z,10.99
2018-09-25T00:09:36.849Z,10.98
2018-09-25T00:12:13.904Z,10.91
2018-09-25T00:14:49.672Z,10.86
2018-09-25T00:17:25.510Z,10.89
2018-09-25T00:20:01.504Z,10.85
2018-09-25T00:22:37.175Z,10.81
2018-09-25T00:25:13.047Z,10.80
2018-09-25T00:27:49.033Z,10.69
2018-09-25T00:30:32.344Z,10.67
2018-09-25T00:33:08.228Z,10.53
2018-09-25T00:35:43.912Z,10.52
2018-09-25T00:38:19.417Z,10.44
2018-09-25T00:40:54.691Z,10.51
2018-09-25T00:43:30.521Z,10.41
2018-09-25T00:46:05.932Z,10.44
2018-09-25T00:48:41.628Z,10.50
2018-09-25T00:51:17.208Z,10.48
2018-09-25T00:53:53.100Z,10.47
2018-09-25T00:56:28.696Z,10.49
2018-09-25T00:59:04.467Z,10.52
2018-09-25T01:01:40.090Z,10.46
2018-09-25T01:04:17.215Z,10.45
2018-09-25T01:06:52.932Z,10.42
2018-09-25T01:09:28.768Z,10.38
2018-09-25T01:12:04.638Z,10.36
2018-09-25T01:14:40.260Z,10.30
2018-09-25T01:17:16.447Z,10.28
2018-09-25T01:19:52.361Z,10.25
2018-09-25T01:22:28.179Z,10.25
2018-09-25T01:25:03.901Z,10.22
2018-09-25T01:27:39.431Z,10.21
2018-09-25T01:30:15.617Z,10.17
2018-09-25T01:32:51.670Z,10.15
2018-09-25T01:35:28.034Z,10.13
2018-09-25T01:38:03.724Z,10.10
2018-09-25T01:40:39.302Z,10.11
2018-09-25T01:43:15.128Z,10.11
2018-09-25T01:45:50.935Z,10.08
2018-09-25T01:48:26.994Z,10.03
2018-09-25T01:51:02.760Z,10.05
2018-09-25T01:53:38.589Z,10.05
2018-09-25T01:56:14.703Z,10.00
2018-09-25T01:58:50.512Z,9.97
2018-09-25T02:01:26.535Z,10.03
2018-09-25T02:04:02.271Z,9.98
2018-09-25T02:06:37.864Z,10.01
2018-09-25T02:09:14.551Z,9.97
2018-09-25T02:11:50.466Z,9.96
2018-09-25T02:14:26.606Z,9.96
2018-09-25T02:17:02.647Z,9.92
2018-09-25T02:19:38.164Z,9.88
2018-09-25T02:22:13.902Z,9.87
2018-09-25T02:24:49.839Z,9.87
2018-09-25T02:27:25.667Z,9.81
2018-09-25T02:30:01.232Z,9.77
2018-09-25T02:32:37.452Z,9.83
2018-09-25T02:35:14.685Z,9.81
2018-09-25T02:37:50.257Z,9.79
2018-09-25T02:40:25.920Z,9.75
2018-09-25T02:43:01.788Z,9.84
2018-09-25T02:45:37.989Z,9.69
2018-09-25T02:48:13.926Z,9.67
2018-09-25T02:50:49.553Z,9.68
2018-09-25T02:53:25.317Z,9.70
2018-09-25T02:56:00.982Z,9.60
2018-09-25T02:58:36.506Z,9.59
2018-09-25T03:01:12.231Z,9.60
2018-09-25T03:03:47.663Z,9.58
2018-09-25T03:06:23.539Z,9.58
2018-09-25T03:08:59.411Z,9.52
2018-09-25T03:11:35.275Z,9.50
2018-09-25T03:16:53.200Z,9.45
2018-09-25T03:19:28.564Z,9.44
2018-09-25T03:22:04.341Z,9.39
2018-09-25T03:24:39.955Z,9.32
2018-09-25T03:27:18.368Z,9.32
2018-09-25T03:29:53.964Z,9.30
2018-09-25T03:32:29.648Z,9.25
2018-09-25T03:35:05.304Z,9.37
2018-09-25T03:37:40.827Z,9.33
2018-09-25T03:40:17.084Z,9.32
2018-09-25T03:42:52.908Z,9.33
2018-09-25T03:45:28.648Z,9.31
2018-09-25T03:48:04.358Z,9.31
2018-09-25T03:50:39.862Z,9.23
2018-09-25T03:53:17.918Z,9.18
2018-09-25T03:55:53.696Z,9.23
2018-09-25T03:58:29.571Z,9.20
2018-09-25T04:01:05.275Z,9.12
2018-09-25T04:03:41.275Z,9.13
2018-09-25T04:06:16.862Z,9.08
2018-09-25T04:08:53.530Z,9.05
2018-09-25T04:11:29.624Z,9.03
2018-09-25T04:14:04.888Z,8.94
2018-09-25T04:16:41.928Z,8.90
2018-09-25T04:19:17.583Z,8.98
2018-09-25T04:21:53.356Z,8.98
2018-09-25T04:24:29.046Z,8.90
2018-09-25T04:27:04.925Z,8.87
2018-09-25T04:29:40.897Z,8.92
2018-09-25T04:32:16.770Z,8.89
2018-09-25T04:34:52.560Z,8.84
2018-09-25T04:37:28.346Z,8.84
2018-09-25T04:40:04.633Z,8.86
2018-09-25T04:42:40.272Z,8.76
2018-09-25T04:45:18.518Z,8.75
2018-09-25T04:47:54.395Z,8.68
2018-09-25T04:50:30.216Z,8.71
2018-09-25T04:53:05.991Z,8.62
2018-09-25T04:55:41.585Z,8.61
2018-09-25T04:58:17.365Z,8.59
2018-09-25T05:00:53.363Z,8.62
2018-09-25T05:03:29.016Z,8.63
2018-09-25T05:06:05.672Z,8.59
2018-09-25T05:08:41.653Z,8.59
2018-09-25T05:11:17.765Z,8.60
2018-09-25T05:13:53.578Z,8.56
2018-09-25T05:16:29.129Z,8.55
2018-09-25T05:19:05.626Z,8.59
2018-09-25T05:21:41.459Z,8.63
2018-09-25T05:24:17.264Z,8.60
2018-09-25T05:26:52.859Z,8.62
2018-09-25T05:29:28.694Z,8.62
2018-09-25T05:32:04.452Z,8.62
2018-09-25T05:34:40.277Z,8.71
2018-09-25T05:37:15.852Z,8.70
2018-09-25T05:39:51.907Z,8.77
2018-09-25T05:42:27.306Z,8.77
2018-09-25T05:45:03.165Z,8.81
2018-09-25T05:47:39.772Z,8.76
2018-09-25T05:50:15.467Z,8.75
2018-09-25T05:52:51.080Z,8.83
2018-09-25T05:55:29.498Z,8.84
2018-09-25T05:58:05.953Z,8.94
2018-09-25T06:00:41.536Z,8.92
2018-09-25T06:03:17.105Z,9.02
2018-09-25T06:05:53.189Z,8.95
2018-09-25T06:08:29.479Z,9.00
2018-09-25T06:11:05.214Z,8.97
2018-09-25T06:13:40.776Z,9.02
2018-09-25T06:16:16.363Z,9.10
2018-09-25T06:18:52.360Z,9.12
2018-09-25T06:21:28.678Z,9.08
2018-09-25T06:24:04.520Z,9.00
2018-09-25T06:26:40.317Z,9.03
2018-09-25T06:29:16.723Z,9.17
2018-09-25T06:31:52.573Z,9.05
2018-09-25T06:34:28.165Z,8.99
2018-09-25T06:37:04.631Z,9.06
2018-09-25T06:39:41.407Z,9.17
2018-09-25T06:42:17.332Z,9.21
2018-09-25T06:44:52.996Z,9.18
2018-09-25T06:47:28.618Z,9.23
2018-09-25T06:50:04.201Z,9.19
2018-09-25T06:52:39.844Z,9.24
2018-09-25T06:55:15.926Z,9.12
2018-09-25T06:57:51.797Z,9.43
2018-09-25T07:00:27.691Z,9.39
2018-09-25T07:03:03.276Z,9.50
2018-09-25T07:05:38.907Z,9.45
2018-09-25T07:08:14.830Z,9.53
2018-09-25T07:10:50.221Z,9.41
2018-09-25T07:13:26.327Z,9.30
2018-09-25T07:16:01.943Z,9.38
2018-09-25T07:18:37.741Z,9.64
2018-09-25T07:21:13.547Z,9.55
2018-09-25T07:23:49.272Z,9.63
2018-09-25T07:26:24.803Z,9.57
2018-09-25T07:29:00.654Z,9.51
2018-09-25T07:31:36.080Z,9.65
2018-09-25T07:34:12.000Z,9.82
2018-09-25T07:36:47.666Z,9.85
2018-09-25T07:39:23.537Z,10.11
2018-09-25T07:41:59.391Z,9.83
2018-09-25T07:44:35.085Z,9.97
2018-09-25T07:47:11.025Z,10.14
2018-09-25T07:49:46.808Z,10.22
2018-09-25T07:52:22.628Z,10.09
2018-09-25T07:54:58.421Z,10.17
2018-09-25T07:57:33.838Z,10.13
2018-09-25T08:00:09.689Z,10.29
2018-09-25T08:02:45.411Z,10.26
2018-09-25T08:05:20.996Z,10.29
2018-09-25T08:07:57.639Z,10.58
2018-09-25T08:10:33.321Z,10.39
2018-09-25T08:13:08.883Z,10.25
2018-09-25T08:15:45.150Z,10.39
2018-09-25T08:18:20.679Z,10.68
2018-09-25T08:20:56.329Z,10.62
2018-09-25T08:23:32.269Z,10.75
2018-09-25T08:26:08.144Z,10.84
2018-09-25T08:28:44.604Z,10.71
2018-09-25T08:31:21.284Z,10.54
2018-09-25T08:33:57.293Z,10.90
2018-09-25T08:36:33.158Z,10.98
2018-09-25T08:39:09.090Z,10.98
2018-09-25T08:41:45.617Z,11.08
2018-09-25T08:44:21.465Z,10.79
2018-09-25T08:46:59.056Z,10.77
2018-09-25T08:49:34.567Z,10.71
2018-09-25T08:52:10.786Z,11.02
2018-09-25T08:54:46.258Z,11.22
2018-09-25T08:57:22.328Z,11.19
2018-09-25T08:59:57.751Z,11.26
2018-09-25T09:02:33.710Z,10.95
2018-09-25T09:05:09.756Z,10.95
2018-09-25T09:07:45.210Z,10.90
2018-09-25T09:10:20.991Z,11.00
2018-09-25T09:12:56.456Z,10.94
2018-09-25T09:15:32.540Z,10.81
2018-09-25T09:18:08.453Z,12.40
2018-09-25T09:20:44.330Z,11.73
2018-09-25T09:23:20.650Z,12.41
2018-09-25T09:25:56.554Z,11.48
2018-09-25T09:28:32.176Z,11.61
2018-09-25T09:31:07.784Z,11.28
2018-09-25T09:33:43.390Z,13.47
2018-09-25T09:36:19.232Z,14.71
2018-09-25T09:38:55.042Z,15.04
2018-09-25T09:41:30.946Z,17.06
2018-09-25T09:44:07.322Z,16.19
2018-09-25T09:46:43.021Z,14.17
2018-09-25T09:49:18.883Z,12.30
2018-09-25T09:51:54.613Z,12.16
2018-09-25T09:54:30.023Z,12.24
2018-09-25T09:57:06.728Z,14.16
2018-09-25T09:59:42.418Z,16.40
2018-09-25T10:02:18.764Z,16.96
2018-09-25T10:04:54.578Z,13.21
2018-09-25T10:07:30.746Z,12.22
2018-09-25T10:10:07.777Z,12.94
2018-09-25T10:12:43.514Z,14.42
2018-09-25T10:15:19.289Z,14.93
2018-09-25T10:18:01.085Z,15.07
2018-09-25T10:20:45.799Z,13.27
2018-09-25T10:23:21.572Z,12.68
2018-09-25T10:25:57.417Z,12.11
2018-09-25T10:28:33.011Z,12.19
2018-09-25T10:31:08.866Z,12.08
2018-09-25T10:33:44.783Z,14.24
2018-09-25T10:39:25.412Z,15.88
2018-09-25T10:42:01.503Z,16.21
2018-09-25T10:44:37.170Z,14.53
2018-09-25T10:47:13.659Z,13.53
2018-09-25T10:49:52.324Z,13.20
2018-09-25T10:52:28.328Z,13.05
2018-09-25T10:55:03.783Z,12.06
2018-09-25T10:57:42.050Z,12.22
2018-09-25T11:00:17.781Z,12.19
2018-09-25T11:02:54.600Z,12.28
2018-09-25T11:05:30.741Z,12.13
2018-09-25T11:08:07.284Z,12.00
2018-09-25T11:10:43.181Z,11.93
2018-09-25T11:13:18.942Z,12.30
2018-09-25T11:15:55.021Z,12.20
2018-09-25T11:18:31.493Z,12.61
2018-09-25T11:21:07.442Z,12.52
2018-09-25T11:23:43.310Z,12.57
2018-09-25T11:26:18.908Z,12.51
2018-09-25T11:28:54.549Z,12.49
2018-09-25T11:31:30.352Z,12.47
2018-09-25T11:34:06.240Z,12.50
2018-09-25T11:36:42.741Z,12.33
2018-09-25T11:39:18.590Z,12.60
2018-09-25T11:41:54.368Z,12.21
2018-09-25T11:44:30.222Z,12.15
2018-09-25T11:47:07.078Z,12.69
2018-09-25T11:49:43.008Z,12.42
2018-09-25T11:52:19.041Z,12.47
2018-09-25T11:54:55.886Z,12.54
2018-09-25T11:57:32.599Z,12.82
2018-09-25T12:00:09.383Z,12.81
2018-09-25T12:02:45.931Z,12.74
2018-09-25T12:05:23.677Z,12.64
2018-09-25T12:07:59.508Z,12.37
2018-09-25T12:10:35.401Z,12.50
2018-09-25T12:13:10.884Z,12.40
2018-09-25T12:15:46.394Z,12.37
2018-09-25T12:18:22.069Z,12.26
2018-09-25T12:20:57.757Z,12.33
2018-09-25T12:23:34.423Z,12.14
2018-09-25T12:26:09.906Z,12.06
2018-09-25T12:28:45.786Z,12.30
2018-09-25T12:31:21.481Z,13.03
2018-09-25T12:33:57.290Z,13.58
2018-09-25T12:36:32.716Z,12.97
2018-09-25T12:39:08.323Z,12.86
2018-09-25T12:41:44.034Z,12.71
2018-09-25T12:44:19.890Z,12.81
2018-09-25T12:46:55.996Z,12.97
2018-09-25T12:49:31.548Z,13.03
2018-09-25T12:52:07.034Z,12.86
2018-09-25T12:54:42.843Z,12.95
2018-09-25T12:57:18.592Z,12.89
2018-09-25T12:59:54.600Z,13.25
2018-09-25T13:02:30.286Z,14.00
2018-09-25T13:05:06.125Z,13.80
2018-09-25T13:07:41.997Z,14.08
2018-09-25T13:10:17.811Z,14.56
2018-09-25T13:12:53.577Z,13.97
2018-09-25T13:15:29.109Z,13.73
2018-09-25T13:18:04.898Z,13.55
2018-09-25T13:20:40.627Z,13.29
2018-09-25T13:23:18.205Z,12.98
2018-09-25T13:25:53.794Z,12.79
2018-09-25T13:28:29.364Z,12.86
2018-09-25T13:31:04.821Z,12.86
2018-09-25T13:33:40.639Z,12.81
2018-09-25T13:36:16.307Z,12.68
2018-09-25T13:38:52.124Z,12.68
2018-09-25T13:41:28.012Z,12.52
2018-09-25T13:44:03.680Z,12.60
2018-09-25T13:46:39.984Z,12.99
2018-09-25T13:49:15.757Z,13.49
2018-09-25T13:51:51.514Z,13.72
2018-09-25T13:54:27.082Z,14.18
2018-09-25T13:57:02.937Z,14.10
2018-09-25T13:59:38.778Z,13.70
2018-09-25T14:02:14.332Z,13.12
2018-09-25T14:04:49.874Z,13.23
2018-09-25T14:07:26.003Z,13.13
2018-09-25T14:10:02.065Z,13.10
2018-09-25T14:12:39.107Z,13.00
2018-09-25T14:15:15.480Z,12.99
2018-09-25T14:17:50.857Z,13.16
2018-09-25T14:20:26.943Z,13.17
2018-09-25T14:23:02.871Z,13.27
2018-09-25T14:25:38.756Z,13.17
2018-09-25T14:28:14.669Z,12.97
2018-09-25T14:30:51.872Z,12.72
2018-09-25T14:33:27.505Z,12.79
2018-09-25T14:36:03.701Z,12.82
2018-09-25T14:38:41.126Z,12.73
2018-09-25T14:41:18.302Z,12.74
2018-09-25T14:43:54.187Z,12.68
2018-09-25T14:46:30.088Z,12.87
2018-09-25T14:49:06.366Z,12.84
2018-09-25T14:51:42.232Z,12.72
2018-09-25T14:54:18.202Z,12.83
2018-09-25T14:56:54.080Z,12.74
2018-09-25T14:59:29.640Z,12.68
2018-09-25T15:02:05.461Z,12.94
2018-09-25T15:04:41.121Z,13.03
2018-09-25T15:07:16.997Z,13.35
2018-09-25T15:09:53.084Z,13.36
2018-09-25T15:12:28.847Z,13.12
2018-09-25T15:15:04.716Z,12.99
2018-09-25T15:17:40.451Z,13.02
2018-09-25T15:20:16.006Z,13.26
2018-09-25T15:22:51.582Z,13.29
2018-09-25T15:25:27.459Z,13.33
2018-09-25T15:28:03.059Z,13.23
2018-09-25T15:30:38.730Z,13.23
2018-09-25T15:33:14.331Z,13.24
2018-09-25T15:35:50.248Z,13.09
2018-09-25T15:38:26.260Z,13.10
2018-09-25T15:41:02.032Z,12.92
2018-09-25T15:43:52.436Z,12.93
2018-09-25T15:46:29.310Z,12.97
2018-09-25T15:49:05.895Z,12.96
2018-09-25T15:51:41.799Z,12.95
2018-09-25T15:54:17.417Z,13.04
2018-09-25T15:56:54.531Z,13.06
2018-09-25T15:59:30.549Z,12.99
2018-09-25T16:02:06.115Z,12.84
2018-09-25T16:04:41.996Z,12.90
2018-09-25T16:07:18.519Z,12.72
2018-09-25T16:09:54.451Z,12.72
2018-09-25T16:12:31.311Z,12.70
2018-09-25T16:15:06.884Z,12.63
2018-09-25T16:17:42.786Z,12.48
2018-09-25T16:20:18.454Z,12.53
2018-09-25T16:22:53.898Z,12.43
2018-09-25T16:25:29.692Z,12.32
2018-09-25T16:28:06.011Z,12.47
2018-09-25T16:30:42.726Z,12.48
2018-09-25T16:33:20.845Z,12.39
2018-09-25T16:35:56.719Z,12.38
2018-09-25T16:38:32.615Z,12.35
2018-09-25T16:41:08.422Z,12.20
2018-09-25T16:43:43.809Z,12.38
2018-09-25T16:46:19.888Z,12.48
2018-09-25T16:48:55.545Z,12.61
2018-09-25T16:51:31.719Z,12.37
2018-09-25T16:54:07.696Z,12.34
2018-09-25T16:56:43.173Z,12.27
2018-09-25T16:59:19.590Z,12.15
2018-09-25T17:01:55.350Z,12.08
2018-09-25T17:04:32.263Z,11.80
2018-09-25T17:07:08.272Z,11.85
2018-09-25T17:09:44.151Z,11.86
2018-09-25T17:12:20.104Z,11.90
2018-09-25T17:14:55.753Z,11.83
2018-09-25T17:17:31.316Z,11.74
2018-09-25T17:20:07.051Z,11.61
2018-09-25T17:22:42.832Z,11.59
2018-09-25T17:25:18.417Z,11.49
2018-09-25T17:27:53.934Z,11.39
2018-09-25T17:30:29.875Z,11.42
2018-09-25T17:33:05.753Z,11.36
2018-09-25T17:35:41.556Z,11.31
2018-09-25T17:38:17.440Z,11.25
2018-09-25T17:40:53.293Z,11.17
2018-09-25T17:43:29.435Z,11.09
2018-09-25T17:46:05.206Z,11.09
2018-09-25T17:48:40.784Z,11.11
2018-09-25T17:51:16.864Z,11.08
2018-09-25T17:53:52.725Z,11.02
2018-09-25T17:56:28.612Z,10.88
2018-09-25T17:59:04.452Z,10.87
2018-09-25T18:01:40.230Z,11.04
2018-09-25T18:04:16.227Z,11.05
2018-09-25T18:06:51.826Z,11.17
2018-09-25T18:09:27.889Z,11.11
2018-09-25T18:12:03.727Z,11.17
2018-09-25T18:14:39.650Z,11.15
2018-09-25T18:17:15.131Z,11.21
2018-09-25T18:19:50.687Z,11.23
2018-09-25T18:22:26.806Z,11.23
2018-09-25T18:25:02.301Z,11.10
2018-09-25T18:27:38.350Z,11.07
2018-09-25T18:30:14.044Z,10.89
2018-09-25T18:32:49.726Z,10.98
2018-09-25T18:35:25.392Z,11.20
2018-09-25T18:38:01.046Z,11.28
2018-09-25T18:40:36.539Z,11.30
2018-09-25T18:43:12.271Z,11.46
2018-09-25T18:45:48.091Z,11.45
2018-09-25T18:48:23.833Z,11.75
2018-09-25T18:51:00.270Z,11.77
2018-09-25T18:53:35.769Z,11.78
2018-09-25T18:56:11.298Z,11.74
2018-09-25T18:58:47.013Z,11.58
2018-09-25T19:01:22.538Z,11.50
2018-09-25T19:03:57.995Z,11.54
2018-09-25T19:06:33.479Z,11.55
2018-09-25T19:09:09.645Z,11.46
2018-09-25T19:11:45.345Z,11.52
2018-09-25T19:14:21.509Z,11.45
2018-09-25T19:16:57.352Z,11.12
2018-09-25T19:19:33.259Z,10.80
2018-09-25T19:22:08.808Z,10.71
2018-09-25T19:24:44.658Z,10.62
2018-09-25T19:27:20.467Z,10.61
2018-09-25T19:29:56.313Z,10.52
2018-09-25T19:32:31.933Z,10.52
2018-09-25T19:35:07.558Z,10.51
2018-09-25T19:37:43.260Z,10.53
2018-09-25T19:40:19.101Z,10.46
2018-09-25T19:42:55.033Z,10.43
2018-09-25T19:45:30.551Z,10.35
2018-09-25T19:48:06.696Z,10.27
2018-09-25T19:50:42.551Z,10.18
2018-09-25T19:53:18.277Z,10.14
2018-09-25T19:55:54.144Z,10.15
2018-09-25T19:58:29.882Z,10.15
2018-09-25T20:01:05.706Z,10.10
2018-09-25T20:03:41.489Z,10.06
2018-09-25T20:06:17.071Z,9.99
2018-09-25T20:08:54.494Z,9.97
2018-09-25T20:11:30.194Z,9.96
2018-09-25T20:14:06.120Z,9.92
2018-09-25T20:16:41.956Z,9.86
2018-09-25T20:19:17.808Z,9.84
2018-09-25T20:21:53.418Z,9.82
2018-09-25T20:24:29.213Z,9.75
2018-09-25T20:27:05.589Z,9.67
2018-09-25T20:29:41.517Z,9.62
2018-09-25T20:32:17.578Z,9.56
2018-09-25T20:34:53.056Z,9.57
2018-09-25T20:37:28.890Z,9.56
2018-09-25T20:40:04.844Z,9.50
2018-09-25T20:42:40.619Z,9.39
2018-09-25T20:45:16.196Z,9.34
2018-09-25T20:47:52.025Z,9.27
2018-09-25T20:50:27.918Z,9.04
2018-09-25T20:53:07.094Z,8.86
2018-09-25T20:55:42.655Z,9.07
2018-09-25T20:58:18.337Z,9.09
2018-09-25T21:00:54.168Z,8.94
2018-09-25T21:03:29.688Z,8.95
2018-09-25T21:06:05.694Z,8.90
2018-09-25T21:08:41.468Z,8.87
2018-09-25T21:11:17.351Z,8.78
2018-09-25T21:13:54.353Z,8.74
2018-09-25T21:16:29.898Z,8.74
2018-09-25T21:19:05.490Z,8.78
2018-09-25T21:21:40.807Z,8.78
2018-09-25T21:24:16.848Z,8.78
2018-09-25T21:26:52.601Z,8.73
2018-09-25T21:29:28.453Z,8.68
2018-09-25T21:32:04.144Z,8.56
2018-09-25T21:34:40.229Z,8.57
2018-09-25T21:37:16.531Z,8.60
2018-09-25T21:39:52.285Z,8.65
2018-09-25T21:42:27.984Z,8.68
2018-09-25T21:45:03.933Z,8.69
2018-09-25T21:47:39.876Z,8.68
2018-09-25T21:50:15.719Z,8.69
2018-09-25T21:52:51.508Z,8.73
2018-09-25T21:55:27.383Z,8.78
2018-09-25T21:58:03.340Z,8.74
2018-09-25T22:00:40.752Z,8.64
2018-09-25T22:03:16.369Z,8.59
2018-09-25T22:05:52.013Z,8.64
2018-09-25T22:08:27.645Z,8.72
2018-09-25T22:11:03.110Z,8.80
2018-09-25T22:13:38.797Z,8.85
2018-09-25T22:16:14.308Z,8.92
2018-09-25T22:18:49.834Z,8.97
2018-09-25T22:21:25.347Z,9.06
2018-09-25T22:24:01.150Z,9.11
2018-09-25T22:26:38.911Z,9.10
2018-09-25T22:29:15.546Z,8.98
2018-09-25T22:31:51.364Z,8.88
2018-09-25T22:34:27.207Z,8.78
2018-09-25T22:37:03.121Z,8.84
2018-09-25T22:39:38.956Z,8.85
2018-09-25T22:42:14.780Z,8.87
2018-09-25T22:44:50.455Z,8.93
2018-09-25T22:47:25.975Z,8.95
2018-09-25T22:50:01.831Z,9.07
2018-09-25T22:52:37.253Z,9.14
2018-09-25T22:55:13.152Z,9.13
2018-09-25T22:57:48.714Z,9.24
2018-09-25T23:00:24.557Z,9.27
2018-09-25T23:03:00.138Z,9.23
2018-09-25T23:05:35.790Z,9.26
2018-09-25T23:08:12.342Z,9.40
2018-09-25T23:10:47.903Z,9.60
2018-09-25T23:13:23.774Z,9.68
2018-09-25T23:15:59.468Z,9.49
2018-09-25T23:18:35.310Z,9.29
2018-09-25T23:21:11.461Z,9.14
2018-09-25T23:23:46.848Z,8.99
2018-09-25T23:26:22.394Z,8.97
2018-09-25T23:28:58.004Z,9.12
2018-09-25T23:31:33.646Z,9.04
2018-09-25T23:34:09.615Z,9.11
2018-09-25T23:36:45.619Z,9.16
2018-09-25T23:39:20.399Z,9.05
2018-09-25T23:41:58.084Z,8.88
2018-09-25T23:46:35.627Z,8.62
2018-09-25T23:49:11.224Z,8.14
2018-09-25T23:51:46.496Z,8.11
2018-09-25T23:54:35.852Z,8.18
2018-09-25T23:57:12.083Z,8.32
2018-09-25T23:59:47.785Z,8.34
